sensor_id;sensor_type;location;lat;lon;timestamp;temperature;humidity
50804;DHT22;37205;51.434;6.756;2022-08-19T00:00:20;21.50;99.90
50804;DHT22;37205;51.434;6.756;2022-08-19T00:02:45;21.40;99.90
50804;DHT22;37205;51.434;6.756;2022-08-19T00:05:13;21.50;99.90
50804;DHT22;37205;51.434;6.756;2022-08-19T00:07:39;21.50;99.90
50804;DHT22;37205;51.434;6.756;2022-08-19T00:10:07;21.40;99.90
50804;DHT22;37205;51.434;6.756;2022-08-19T00:12:33;21.40;99.90
50804;DHT22;37205;51.434;6.756;2022-08-19T00:14:59;21.40;99.90
50804;DHT22;37205;51.434;6.756;2022-08-19T00:17:25;21.40;99.90
50804;DHT22;37205;51.434;6.756;2022-08-19T00:19:50;21.40;99.90
50804;DHT22;37205;51.434;6.756;2022-08-19T00:22:16;21.40;99.90
50804;DHT22;37205;51.434;6.756;2022-08-19T00:24:44;21.30;99.90
50804;DHT22;37205;51.434;6.756;2022-08-19T00:27:11;21.30;99.90
50804;DHT22;37205;51.434;6.756;2022-08-19T00:29:37;21.30;99.90
50804;DHT22;37205;51.434;6.756;2022-08-19T00:32:03;21.30;99.90
50804;DHT22;37205;51.434;6.756;2022-08-19T00:34:29;21.30;99.90
50804;DHT22;37205;51.434;6.756;2022-08-19T00:36:55;21.30;99.90
50804;DHT22;37205;51.434;6.756;2022-08-19T00:39:21;21.20;99.90
50804;DHT22;37205;51.434;6.756;2022-08-19T00:41:48;21.20;99.90
50804;DHT22;37205;51.434;6.756;2022-08-19T00:46:44;21.10;99.90
50804;DHT22;37205;51.434;6.756;2022-08-19T00:51:45;21.10;99.90
50804;DHT22;37205;51.434;6.756;2022-08-19T00:54:12;21.10;99.90
50804;DHT22;37205;51.434;6.756;2022-08-19T00:56:38;21.00;99.90
50804;DHT22;37205;51.434;6.756;2022-08-19T00:59:04;21.00;99.90
50804;DHT22;37205;51.434;6.756;2022-08-19T01:01:36;21.00;99.90
50804;DHT22;37205;51.434;6.756;2022-08-19T01:04:02;21.00;99.90
50804;DHT22;37205;51.434;6.756;2022-08-19T01:06:27;20.90;99.90
50804;DHT22;37205;51.434;6.756;2022-08-19T01:08:54;20.90;99.90
50804;DHT22;37205;51.434;6.756;2022-08-19T01:11:20;20.80;99.90
50804;DHT22;37205;51.434;6.756;2022-08-19T01:13:46;20.80;99.90
50804;DHT22;37205;51.434;6.756;2022-08-19T01:16:12;20.80;99.90
50804;DHT22;37205;51.434;6.756;2022-08-19T01:18:41;20.80;99.90
50804;DHT22;37205;51.434;6.756;2022-08-19T01:21:16;20.80;99.90
50804;DHT22;37205;51.434;6.756;2022-08-19T01:23:44;20.80;99.90
50804;DHT22;37205;51.434;6.756;2022-08-19T01:26:13;20.70;99.90
50804;DHT22;37205;51.434;6.756;2022-08-19T01:28:41;20.70;99.90
50804;DHT22;37205;51.434;6.756;2022-08-19T01:31:10;20.70;99.90
50804;DHT22;37205;51.434;6.756;2022-08-19T01:33:37;20.60;99.90
50804;DHT22;37205;51.434;6.756;2022-08-19T01:36:05;20.60;99.90
50804;DHT22;37205;51.434;6.756;2022-08-19T01:38:36;20.60;99.90
50804;DHT22;37205;51.434;6.756;2022-08-19T01:41:02;20.50;99.90
50804;DHT22;37205;51.434;6.756;2022-08-19T01:43:28;20.40;99.90
50804;DHT22;37205;51.434;6.756;2022-08-19T01:45:54;20.40;99.90
50804;DHT22;37205;51.434;6.756;2022-08-19T01:48:19;20.40;99.90
50804;DHT22;37205;51.434;6.756;2022-08-19T01:50:45;20.40;99.90
50804;DHT22;37205;51.434;6.756;2022-08-19T01:53:11;20.40;99.90
50804;DHT22;37205;51.434;6.756;2022-08-19T01:55:40;20.40;99.90
50804;DHT22;37205;51.434;6.756;2022-08-19T01:58:06;20.40;99.90
50804;DHT22;37205;51.434;6.756;2022-08-19T02:00:33;20.40;99.90
50804;DHT22;37205;51.434;6.756;2022-08-19T02:02:59;20.40;99.90
50804;DHT22;37205;51.434;6.756;2022-08-19T02:05:26;20.40;99.90
50804;DHT22;37205;51.434;6.756;2022-08-19T02:07:52;20.40;99.90
50804;DHT22;37205;51.434;6.756;2022-08-19T02:10:21;20.30;99.90
50804;DHT22;37205;51.434;6.756;2022-08-19T02:12:48;20.30;99.90
50804;DHT22;37205;51.434;6.756;2022-08-19T02:15:15;20.30;99.90
50804;DHT22;37205;51.434;6.756;2022-08-19T02:17:41;20.20;99.90
50804;DHT22;37205;51.434;6.756;2022-08-19T02:20:08;20.30;99.90
50804;DHT22;37205;51.434;6.756;2022-08-19T02:22:34;20.20;99.90
50804;DHT22;37205;51.434;6.756;2022-08-19T02:25:01;20.20;99.90
50804;DHT22;37205;51.434;6.756;2022-08-19T02:27:26;20.20;99.90
50804;DHT22;37205;51.434;6.756;2022-08-19T02:29:52;20.10;99.90
50804;DHT22;37205;51.434;6.756;2022-08-19T02:32:18;20.10;99.90
50804;DHT22;37205;51.434;6.756;2022-08-19T02:34:45;20.10;99.90
50804;DHT22;37205;51.434;6.756;2022-08-19T02:37:11;20.10;99.90
50804;DHT22;37205;51.434;6.756;2022-08-19T02:39:57;20.10;99.90
50804;DHT22;37205;51.434;6.756;2022-08-19T02:42:22;20.00;99.90
50804;DHT22;37205;51.434;6.756;2022-08-19T02:44:48;20.00;99.90
50804;DHT22;37205;51.434;6.756;2022-08-19T02:47:14;20.00;99.90
50804;DHT22;37205;51.434;6.756;2022-08-19T02:49:40;20.00;99.90
50804;DHT22;37205;51.434;6.756;2022-08-19T02:52:06;19.90;99.90
50804;DHT22;37205;51.434;6.756;2022-08-19T02:54:32;19.80;99.90
50804;DHT22;37205;51.434;6.756;2022-08-19T02:56:57;19.80;99.90
50804;DHT22;37205;51.434;6.756;2022-08-19T02:59:23;19.80;99.90
50804;DHT22;37205;51.434;6.756;2022-08-19T03:01:49;19.80;99.90
50804;DHT22;37205;51.434;6.756;2022-08-19T03:04:15;19.90;99.90
50804;DHT22;37205;51.434;6.756;2022-08-19T03:06:44;19.80;99.90
50804;DHT22;37205;51.434;6.756;2022-08-19T03:09:11;19.90;99.90
50804;DHT22;37205;51.434;6.756;2022-08-19T03:11:38;19.90;99.90
50804;DHT22;37205;51.434;6.756;2022-08-19T03:14:05;19.90;99.90
50804;DHT22;37205;51.434;6.756;2022-08-19T03:16:34;19.90;99.90
50804;DHT22;37205;51.434;6.756;2022-08-19T03:19:00;19.90;99.90
50804;DHT22;37205;51.434;6.756;2022-08-19T03:21:29;19.90;99.90
50804;DHT22;37205;51.434;6.756;2022-08-19T03:23:59;19.90;99.90
50804;DHT22;37205;51.434;6.756;2022-08-19T03:26:25;19.90;99.90
50804;DHT22;37205;51.434;6.756;2022-08-19T03:28:51;20.00;99.90
50804;DHT22;37205;51.434;6.756;2022-08-19T03:31:19;19.90;99.90
50804;DHT22;37205;51.434;6.756;2022-08-19T03:33:47;19.90;99.90
50804;DHT22;37205;51.434;6.756;2022-08-19T03:36:15;19.90;99.90
50804;DHT22;37205;51.434;6.756;2022-08-19T03:38:45;19.90;99.90
50804;DHT22;37205;51.434;6.756;2022-08-19T03:41:13;19.80;99.90
50804;DHT22;37205;51.434;6.756;2022-08-19T03:43:41;19.80;99.90
50804;DHT22;37205;51.434;6.756;2022-08-19T03:46:15;19.80;99.90
50804;DHT22;37205;51.434;6.756;2022-08-19T03:48:42;19.80;99.90
50804;DHT22;37205;51.434;6.756;2022-08-19T03:51:17;19.80;99.90
50804;DHT22;37205;51.434;6.756;2022-08-19T03:53:44;19.80;99.90
50804;DHT22;37205;51.434;6.756;2022-08-19T03:56:10;19.80;99.90
50804;DHT22;37205;51.434;6.756;2022-08-19T03:58:35;19.70;99.90
50804;DHT22;37205;51.434;6.756;2022-08-19T04:01:10;19.80;99.90
50804;DHT22;37205;51.434;6.756;2022-08-19T04:03:36;19.80;99.90
50804;DHT22;37205;51.434;6.756;2022-08-19T04:08:39;19.70;99.90
50804;DHT22;37205;51.434;6.756;2022-08-19T04:11:10;19.70;99.90
50804;DHT22;37205;51.434;6.756;2022-08-19T04:13:36;19.70;99.90
50804;DHT22;37205;51.434;6.756;2022-08-19T04:16:02;19.60;99.90
50804;DHT22;37205;51.434;6.756;2022-08-19T04:18:29;19.60;99.90
50804;DHT22;37205;51.434;6.756;2022-08-19T04:20:55;19.60;99.90
50804;DHT22;37205;51.434;6.756;2022-08-19T04:23:22;19.60;99.90
50804;DHT22;37205;51.434;6.756;2022-08-19T04:25:48;19.60;99.90
50804;DHT22;37205;51.434;6.756;2022-08-19T04:28:14;19.60;99.90
50804;DHT22;37205;51.434;6.756;2022-08-19T04:30:48;19.50;99.90
50804;DHT22;37205;51.434;6.756;2022-08-19T04:33:15;19.50;99.90
50804;DHT22;37205;51.434;6.756;2022-08-19T04:35:43;19.50;99.90
50804;DHT22;37205;51.434;6.756;2022-08-19T04:38:11;19.40;99.90
50804;DHT22;37205;51.434;6.756;2022-08-19T04:40:44;19.40;99.90
50804;DHT22;37205;51.434;6.756;2022-08-19T04:43:29;19.50;99.90
50804;DHT22;37205;51.434;6.756;2022-08-19T04:45:55;19.50;99.90
50804;DHT22;37205;51.434;6.756;2022-08-19T04:48:21;19.50;99.90
50804;DHT22;37205;51.434;6.756;2022-08-19T04:50:52;19.40;99.90
50804;DHT22;37205;51.434;6.756;2022-08-19T04:53:34;19.40;99.90
50804;DHT22;37205;51.434;6.756;2022-08-19T04:56:13;19.40;99.90
50804;DHT22;37205;51.434;6.756;2022-08-19T04:58:41;19.40;99.90
50804;DHT22;37205;51.434;6.756;2022-08-19T05:01:09;19.40;99.90
50804;DHT22;37205;51.434;6.756;2022-08-19T05:03:38;19.30;99.90
50804;DHT22;37205;51.434;6.756;2022-08-19T05:06:10;19.30;99.90
50804;DHT22;37205;51.434;6.756;2022-08-19T05:08:38;19.30;99.90
50804;DHT22;37205;51.434;6.756;2022-08-19T05:11:13;19.30;99.90
50804;DHT22;37205;51.434;6.756;2022-08-19T05:13:40;19.30;99.90
50804;DHT22;37205;51.434;6.756;2022-08-19T05:16:06;19.30;99.90
50804;DHT22;37205;51.434;6.756;2022-08-19T05:18:32;19.30;99.90
50804;DHT22;37205;51.434;6.756;2022-08-19T05:21:18;19.30;99.90
50804;DHT22;37205;51.434;6.756;2022-08-19T05:24:04;19.30;99.90
50804;DHT22;37205;51.434;6.756;2022-08-19T05:26:35;19.30;99.90
50804;DHT22;37205;51.434;6.756;2022-08-19T05:29:00;19.30;99.90
50804;DHT22;37205;51.434;6.756;2022-08-19T05:31:26;19.30;99.90
50804;DHT22;37205;51.434;6.756;2022-08-19T05:33:52;19.30;99.90
50804;DHT22;37205;51.434;6.756;2022-08-19T05:36:17;19.30;99.90
50804;DHT22;37205;51.434;6.756;2022-08-19T05:38:45;19.30;99.90
50804;DHT22;37205;51.434;6.756;2022-08-19T05:41:12;19.30;99.90
50804;DHT22;37205;51.434;6.756;2022-08-19T05:43:38;19.30;99.90
50804;DHT22;37205;51.434;6.756;2022-08-19T05:46:05;19.30;99.90
50804;DHT22;37205;51.434;6.756;2022-08-19T05:48:32;19.30;99.90
50804;DHT22;37205;51.434;6.756;2022-08-19T05:50:57;19.30;99.90
50804;DHT22;37205;51.434;6.756;2022-08-19T05:53:25;19.30;99.90
50804;DHT22;37205;51.434;6.756;2022-08-19T05:55:50;19.30;99.90
50804;DHT22;37205;51.434;6.756;2022-08-19T05:58:16;19.20;99.90
50804;DHT22;37205;51.434;6.756;2022-08-19T06:00:43;19.30;99.90
50804;DHT22;37205;51.434;6.756;2022-08-19T06:03:09;19.40;99.90
50804;DHT22;37205;51.434;6.756;2022-08-19T06:05:35;19.40;99.90
50804;DHT22;37205;51.434;6.756;2022-08-19T06:08:01;19.40;99.90
50804;DHT22;37205;51.434;6.756;2022-08-19T06:10:27;19.50;99.90
50804;DHT22;37205;51.434;6.756;2022-08-19T06:12:53;19.50;99.90
50804;DHT22;37205;51.434;6.756;2022-08-19T06:15:19;19.50;99.90
50804;DHT22;37205;51.434;6.756;2022-08-19T06:17:45;19.50;99.90
50804;DHT22;37205;51.434;6.756;2022-08-19T06:20:13;19.50;99.90
50804;DHT22;37205;51.434;6.756;2022-08-19T06:22:41;19.50;99.90
50804;DHT22;37205;51.434;6.756;2022-08-19T06:25:07;19.50;99.90
50804;DHT22;37205;51.434;6.756;2022-08-19T06:27:34;19.60;99.90
50804;DHT22;37205;51.434;6.756;2022-08-19T06:30:01;19.60;99.90
50804;DHT22;37205;51.434;6.756;2022-08-19T06:32:27;19.60;99.90
50804;DHT22;37205;51.434;6.756;2022-08-19T06:34:53;19.60;99.90
50804;DHT22;37205;51.434;6.756;2022-08-19T06:37:18;19.70;99.90
50804;DHT22;37205;51.434;6.756;2022-08-19T06:39:44;19.70;99.90
50804;DHT22;37205;51.434;6.756;2022-08-19T06:42:11;19.70;99.90
50804;DHT22;37205;51.434;6.756;2022-08-19T06:44:40;19.70;99.90
50804;DHT22;37205;51.434;6.756;2022-08-19T06:47:09;19.80;99.90
50804;DHT22;37205;51.434;6.756;2022-08-19T06:49:35;19.80;99.90
50804;DHT22;37205;51.434;6.756;2022-08-19T06:52:02;19.80;99.90
50804;DHT22;37205;51.434;6.756;2022-08-19T06:54:29;19.80;99.90
50804;DHT22;37205;51.434;6.756;2022-08-19T06:56:56;19.80;99.90
50804;DHT22;37205;51.434;6.756;2022-08-19T06:59:24;19.80;99.90
50804;DHT22;37205;51.434;6.756;2022-08-19T07:01:54;19.80;99.90
50804;DHT22;37205;51.434;6.756;2022-08-19T07:04:23;19.90;99.90
50804;DHT22;37205;51.434;6.756;2022-08-19T07:06:49;19.90;99.90
50804;DHT22;37205;51.434;6.756;2022-08-19T07:09:17;19.90;99.90
50804;DHT22;37205;51.434;6.756;2022-08-19T07:11:51;20.00;99.90
50804;DHT22;37205;51.434;6.756;2022-08-19T07:14:19;20.00;99.90
50804;DHT22;37205;51.434;6.756;2022-08-19T07:16:47;20.00;99.90
50804;DHT22;37205;51.434;6.756;2022-08-19T07:19:13;20.10;99.90
50804;DHT22;37205;51.434;6.756;2022-08-19T07:21:40;20.10;99.90
50804;DHT22;37205;51.434;6.756;2022-08-19T07:24:07;20.20;99.90
50804;DHT22;37205;51.434;6.756;2022-08-19T07:26:38;20.20;99.90
50804;DHT22;37205;51.434;6.756;2022-08-19T07:29:05;20.20;99.90
50804;DHT22;37205;51.434;6.756;2022-08-19T07:31:31;20.30;99.90
50804;DHT22;37205;51.434;6.756;2022-08-19T07:34:02;20.40;99.90
50804;DHT22;37205;51.434;6.756;2022-08-19T07:36:29;20.40;99.90
50804;DHT22;37205;51.434;6.756;2022-08-19T07:38:56;20.50;99.90
50804;DHT22;37205;51.434;6.756;2022-08-19T07:41:24;20.50;99.90
50804;DHT22;37205;51.434;6.756;2022-08-19T07:43:51;20.60;99.90
50804;DHT22;37205;51.434;6.756;2022-08-19T07:46:18;20.60;99.90
50804;DHT22;37205;51.434;6.756;2022-08-19T07:48:51;20.70;99.90
50804;DHT22;37205;51.434;6.756;2022-08-19T07:51:33;20.90;99.90
50804;DHT22;37205;51.434;6.756;2022-08-19T07:53:58;20.90;99.90
50804;DHT22;37205;51.434;6.756;2022-08-19T07:56:25;21.00;99.90
50804;DHT22;37205;51.434;6.756;2022-08-19T07:58:52;21.00;99.90
50804;DHT22;37205;51.434;6.756;2022-08-19T08:01:21;21.10;99.90
50804;DHT22;37205;51.434;6.756;2022-08-19T08:03:49;21.10;99.90
50804;DHT22;37205;51.434;6.756;2022-08-19T08:06:33;21.20;99.90
50804;DHT22;37205;51.434;6.756;2022-08-19T08:09:22;21.30;99.90
50804;DHT22;37205;51.434;6.756;2022-08-19T08:11:55;21.40;99.90
50804;DHT22;37205;51.434;6.756;2022-08-19T08:14:32;21.60;99.90
50804;DHT22;37205;51.434;6.756;2022-08-19T08:17:00;21.70;99.90
50804;DHT22;37205;51.434;6.756;2022-08-19T08:19:27;21.70;99.90
50804;DHT22;37205;51.434;6.756;2022-08-19T08:21:55;21.80;99.90
50804;DHT22;37205;51.434;6.756;2022-08-19T08:24:21;21.80;99.90
50804;DHT22;37205;51.434;6.756;2022-08-19T08:26:47;21.90;99.90
50804;DHT22;37205;51.434;6.756;2022-08-19T08:29:13;21.80;99.90
50804;DHT22;37205;51.434;6.756;2022-08-19T08:31:40;21.90;99.90
50804;DHT22;37205;51.434;6.756;2022-08-19T08:34:08;21.90;99.90
50804;DHT22;37205;51.434;6.756;2022-08-19T08:36:37;21.90;99.90
50804;DHT22;37205;51.434;6.756;2022-08-19T08:39:06;21.90;99.90
50804;DHT22;37205;51.434;6.756;2022-08-19T08:44:34;22.10;99.90
50804;DHT22;37205;51.434;6.756;2022-08-19T08:47:11;22.10;99.90
50804;DHT22;37205;51.434;6.756;2022-08-19T08:49:50;22.10;99.90
50804;DHT22;37205;51.434;6.756;2022-08-19T08:52:29;22.20;99.90
50804;DHT22;37205;51.434;6.756;2022-08-19T08:54:58;22.30;99.90
50804;DHT22;37205;51.434;6.756;2022-08-19T09:00:06;22.40;99.90
50804;DHT22;37205;51.434;6.756;2022-08-19T09:02:32;22.50;99.90
50804;DHT22;37205;51.434;6.756;2022-08-19T09:04:58;22.40;99.90
50804;DHT22;37205;51.434;6.756;2022-08-19T09:10:35;22.50;99.90
50804;DHT22;37205;51.434;6.756;2022-08-19T09:13:20;22.50;99.90
50804;DHT22;37205;51.434;6.756;2022-08-19T09:15:57;22.60;99.90
50804;DHT22;37205;51.434;6.756;2022-08-19T09:18:24;22.50;99.90
50804;DHT22;37205;51.434;6.756;2022-08-19T09:20:49;22.60;99.90
50804;DHT22;37205;51.434;6.756;2022-08-19T09:23:15;22.60;99.90
50804;DHT22;37205;51.434;6.756;2022-08-19T09:25:41;22.60;99.90
50804;DHT22;37205;51.434;6.756;2022-08-19T09:28:07;22.70;99.90
50804;DHT22;37205;51.434;6.756;2022-08-19T09:30:38;22.80;99.90
50804;DHT22;37205;51.434;6.756;2022-08-19T09:33:05;22.90;99.90
50804;DHT22;37205;51.434;6.756;2022-08-19T09:35:31;23.10;99.90
50804;DHT22;37205;51.434;6.756;2022-08-19T09:37:58;23.10;99.90
50804;DHT22;37205;51.434;6.756;2022-08-19T09:40:26;23.10;99.90
50804;DHT22;37205;51.434;6.756;2022-08-19T09:42:52;23.20;99.90
50804;DHT22;37205;51.434;6.756;2022-08-19T09:45:21;23.30;99.90
50804;DHT22;37205;51.434;6.756;2022-08-19T09:47:47;23.20;99.90
50804;DHT22;37205;51.434;6.756;2022-08-19T09:50:14;23.30;99.90
50804;DHT22;37205;51.434;6.756;2022-08-19T09:52:40;23.30;99.90
50804;DHT22;37205;51.434;6.756;2022-08-19T09:55:09;23.30;99.90
50804;DHT22;37205;51.434;6.756;2022-08-19T09:57:35;23.30;99.90
50804;DHT22;37205;51.434;6.756;2022-08-19T10:00:03;23.40;99.90
50804;DHT22;37205;51.434;6.756;2022-08-19T10:02:29;23.40;99.90
50804;DHT22;37205;51.434;6.756;2022-08-19T10:04:54;23.40;99.90
50804;DHT22;37205;51.434;6.756;2022-08-19T10:07:38;23.50;99.90
50804;DHT22;37205;51.434;6.756;2022-08-19T10:10:05;23.40;99.90
50804;DHT22;37205;51.434;6.756;2022-08-19T10:12:32;23.40;99.90
50804;DHT22;37205;51.434;6.756;2022-08-19T10:14:59;23.50;99.90
50804;DHT22;37205;51.434;6.756;2022-08-19T10:17:27;23.50;99.90
50804;DHT22;37205;51.434;6.756;2022-08-19T10:19:52;23.60;99.90
50804;DHT22;37205;51.434;6.756;2022-08-19T10:22:18;23.60;99.90
50804;DHT22;37205;51.434;6.756;2022-08-19T10:24:46;23.70;99.90
50804;DHT22;37205;51.434;6.756;2022-08-19T10:27:12;23.70;99.90
50804;DHT22;37205;51.434;6.756;2022-08-19T10:29:39;23.70;99.90
50804;DHT22;37205;51.434;6.756;2022-08-19T10:32:07;23.80;99.90
50804;DHT22;37205;51.434;6.756;2022-08-19T10:34:37;23.80;99.90
50804;DHT22;37205;51.434;6.756;2022-08-19T10:37:04;24.00;99.90
50804;DHT22;37205;51.434;6.756;2022-08-19T10:39:34;24.00;99.90
50804;DHT22;37205;51.434;6.756;2022-08-19T10:42:07;24.00;99.90
50804;DHT22;37205;51.434;6.756;2022-08-19T10:44:35;24.00;99.90
50804;DHT22;37205;51.434;6.756;2022-08-19T10:47:02;24.10;99.90
50804;DHT22;37205;51.434;6.756;2022-08-19T10:49:29;24.10;99.90
50804;DHT22;37205;51.434;6.756;2022-08-19T10:51:55;24.20;99.90
50804;DHT22;37205;51.434;6.756;2022-08-19T10:54:40;24.30;99.90
50804;DHT22;37205;51.434;6.756;2022-08-19T10:57:24;24.30;99.90
50804;DHT22;37205;51.434;6.756;2022-08-19T10:59:55;24.30;99.90
50804;DHT22;37205;51.434;6.756;2022-08-19T11:02:21;24.30;99.90
50804;DHT22;37205;51.434;6.756;2022-08-19T11:04:46;24.20;99.90
50804;DHT22;37205;51.434;6.756;2022-08-19T11:07:12;24.20;99.90
50804;DHT22;37205;51.434;6.756;2022-08-19T11:09:40;24.20;99.90
50804;DHT22;37205;51.434;6.756;2022-08-19T11:12:07;24.20;99.90
50804;DHT22;37205;51.434;6.756;2022-08-19T11:14:33;24.30;99.90
50804;DHT22;37205;51.434;6.756;2022-08-19T11:17:00;24.30;99.90
50804;DHT22;37205;51.434;6.756;2022-08-19T11:19:25;24.20;99.90
50804;DHT22;37205;51.434;6.756;2022-08-19T11:21:51;24.20;99.90
50804;DHT22;37205;51.434;6.756;2022-08-19T11:24:22;24.20;99.90
50804;DHT22;37205;51.434;6.756;2022-08-19T11:26:49;24.20;99.90
50804;DHT22;37205;51.434;6.756;2022-08-19T11:29:17;24.30;99.90
50804;DHT22;37205;51.434;6.756;2022-08-19T11:31:46;24.40;99.90
50804;DHT22;37205;51.434;6.756;2022-08-19T11:34:14;24.40;99.90
50804;DHT22;37205;51.434;6.756;2022-08-19T11:36:43;24.50;99.90
50804;DHT22;37205;51.434;6.756;2022-08-19T11:39:11;24.60;99.90
50804;DHT22;37205;51.434;6.756;2022-08-19T11:41:37;24.50;99.90
50804;DHT22;37205;51.434;6.756;2022-08-19T11:44:04;24.60;99.90
50804;DHT22;37205;51.434;6.756;2022-08-19T11:46:30;24.60;99.90
50804;DHT22;37205;51.434;6.756;2022-08-19T11:48:57;24.60;99.90
50804;DHT22;37205;51.434;6.756;2022-08-19T11:51:25;24.60;99.90
50804;DHT22;37205;51.434;6.756;2022-08-19T11:53:53;24.60;99.90
50804;DHT22;37205;51.434;6.756;2022-08-19T11:56:19;24.70;99.90
50804;DHT22;37205;51.434;6.756;2022-08-19T11:58:45;24.70;99.90
50804;DHT22;37205;51.434;6.756;2022-08-19T12:01:13;24.80;99.90
50804;DHT22;37205;51.434;6.756;2022-08-19T12:03:41;24.80;99.90
50804;DHT22;37205;51.434;6.756;2022-08-19T12:06:09;24.80;99.90
50804;DHT22;37205;51.434;6.756;2022-08-19T12:08:35;25.00;99.90
50804;DHT22;37205;51.434;6.756;2022-08-19T12:11:01;25.00;99.90
50804;DHT22;37205;51.434;6.756;2022-08-19T12:13:29;25.20;99.90
50804;DHT22;37205;51.434;6.756;2022-08-19T12:15:56;25.30;99.90
50804;DHT22;37205;51.434;6.756;2022-08-19T12:18:21;25.30;99.90
50804;DHT22;37205;51.434;6.756;2022-08-19T12:20:49;25.30;99.90
50804;DHT22;37205;51.434;6.756;2022-08-19T12:23:16;25.40;99.90
50804;DHT22;37205;51.434;6.756;2022-08-19T12:25:46;25.40;99.90
50804;DHT22;37205;51.434;6.756;2022-08-19T12:28:20;25.50;99.90
50804;DHT22;37205;51.434;6.756;2022-08-19T12:30:47;25.50;99.90
50804;DHT22;37205;51.434;6.756;2022-08-19T12:33:13;25.60;99.90
50804;DHT22;37205;51.434;6.756;2022-08-19T12:35:41;25.60;99.90
50804;DHT22;37205;51.434;6.756;2022-08-19T12:38:07;25.50;99.90
50804;DHT22;37205;51.434;6.756;2022-08-19T12:40:33;25.50;99.90
50804;DHT22;37205;51.434;6.756;2022-08-19T12:42:58;25.50;99.90
50804;DHT22;37205;51.434;6.756;2022-08-19T12:45:24;25.40;99.90
50804;DHT22;37205;51.434;6.756;2022-08-19T12:47:50;25.40;99.90
50804;DHT22;37205;51.434;6.756;2022-08-19T12:50:18;25.40;99.90
50804;DHT22;37205;51.434;6.756;2022-08-19T12:52:44;25.50;99.90
50804;DHT22;37205;51.434;6.756;2022-08-19T12:55:10;25.50;99.90
50804;DHT22;37205;51.434;6.756;2022-08-19T12:57:37;25.50;99.90
50804;DHT22;37205;51.434;6.756;2022-08-19T13:00:15;25.50;99.90
50804;DHT22;37205;51.434;6.756;2022-08-19T13:02:43;25.60;99.90
50804;DHT22;37205;51.434;6.756;2022-08-19T13:05:12;25.70;99.90
50804;DHT22;37205;51.434;6.756;2022-08-19T13:07:40;25.70;99.90
50804;DHT22;37205;51.434;6.756;2022-08-19T13:10:07;25.90;99.90
50804;DHT22;37205;51.434;6.756;2022-08-19T13:12:33;25.80;99.90
50804;DHT22;37205;51.434;6.756;2022-08-19T13:14:59;26.00;99.90
50804;DHT22;37205;51.434;6.756;2022-08-19T13:17:24;26.10;99.90
50804;DHT22;37205;51.434;6.756;2022-08-19T13:19:50;26.10;99.90
50804;DHT22;37205;51.434;6.756;2022-08-19T13:22:16;26.20;99.90
50804;DHT22;37205;51.434;6.756;2022-08-19T13:24:42;26.20;99.90
50804;DHT22;37205;51.434;6.756;2022-08-19T13:27:08;26.30;99.90
50804;DHT22;37205;51.434;6.756;2022-08-19T13:29:33;26.30;99.90
50804;DHT22;37205;51.434;6.756;2022-08-19T13:32:18;26.40;99.90
50804;DHT22;37205;51.434;6.756;2022-08-19T13:35:03;26.50;99.90
50804;DHT22;37205;51.434;6.756;2022-08-19T13:37:29;26.60;99.90
50804;DHT22;37205;51.434;6.756;2022-08-19T13:40:13;26.80;99.90
50804;DHT22;37205;51.434;6.756;2022-08-19T13:42:42;27.00;99.90
50804;DHT22;37205;51.434;6.756;2022-08-19T13:45:09;27.20;99.90
50804;DHT22;37205;51.434;6.756;2022-08-19T13:47:36;27.40;99.90
50804;DHT22;37205;51.434;6.756;2022-08-19T13:50:09;27.50;99.90
50804;DHT22;37205;51.434;6.756;2022-08-19T13:52:36;27.50;99.90
50804;DHT22;37205;51.434;6.756;2022-08-19T13:55:02;27.80;99.90
50804;DHT22;37205;51.434;6.756;2022-08-19T13:57:30;28.00;99.90
50804;DHT22;37205;51.434;6.756;2022-08-19T13:59:57;27.90;99.70
50804;DHT22;37205;51.434;6.756;2022-08-19T14:02:23;27.90;99.90
50804;DHT22;37205;51.434;6.756;2022-08-19T14:04:49;27.50;99.90
50804;DHT22;37205;51.434;6.756;2022-08-19T14:07:15;27.70;99.90
50804;DHT22;37205;51.434;6.756;2022-08-19T14:09:41;28.20;99.90
50804;DHT22;37205;51.434;6.756;2022-08-19T14:12:07;28.50;99.80
50804;DHT22;37205;51.434;6.756;2022-08-19T14:14:37;28.80;99.40
50804;DHT22;37205;51.434;6.756;2022-08-19T14:17:06;29.00;99.00
50804;DHT22;37205;51.434;6.756;2022-08-19T14:19:32;29.10;99.20
50804;DHT22;37205;51.434;6.756;2022-08-19T14:21:57;29.20;98.90
50804;DHT22;37205;51.434;6.756;2022-08-19T14:24:23;29.00;98.60
50804;DHT22;37205;51.434;6.756;2022-08-19T14:26:48;28.90;98.80
50804;DHT22;37205;51.434;6.756;2022-08-19T14:29:14;28.80;99.10
50804;DHT22;37205;51.434;6.756;2022-08-19T14:31:39;28.60;99.20
50804;DHT22;37205;51.434;6.756;2022-08-19T14:34:06;29.10;98.40
50804;DHT22;37205;51.434;6.756;2022-08-19T14:36:31;29.20;97.80
50804;DHT22;37205;51.434;6.756;2022-08-19T14:38:59;29.20;98.00
50804;DHT22;37205;51.434;6.756;2022-08-19T14:41:29;29.30;97.00
50804;DHT22;37205;51.434;6.756;2022-08-19T14:43:58;29.60;96.80
50804;DHT22;37205;51.434;6.756;2022-08-19T14:46:28;29.80;97.10
50804;DHT22;37205;51.434;6.756;2022-08-19T14:48:54;30.00;97.00
50804;DHT22;37205;51.434;6.756;2022-08-19T14:51:21;30.10;96.50
50804;DHT22;37205;51.434;6.756;2022-08-19T14:53:49;30.10;95.80
50804;DHT22;37205;51.434;6.756;2022-08-19T14:56:17;30.00;95.30
50804;DHT22;37205;51.434;6.756;2022-08-19T14:58:44;30.10;94.90
50804;DHT22;37205;51.434;6.756;2022-08-19T15:01:11;30.10;94.20
50804;DHT22;37205;51.434;6.756;2022-08-19T15:03:39;29.80;94.00
50804;DHT22;37205;51.434;6.756;2022-08-19T15:06:07;29.90;93.80
50804;DHT22;37205;51.434;6.756;2022-08-19T15:08:35;30.10;93.70
50804;DHT22;37205;51.434;6.756;2022-08-19T15:11:02;30.00;93.20
50804;DHT22;37205;51.434;6.756;2022-08-19T15:13:32;30.00;92.90
50804;DHT22;37205;51.434;6.756;2022-08-19T15:15:58;30.30;93.30
50804;DHT22;37205;51.434;6.756;2022-08-19T15:18:23;30.40;93.30
50804;DHT22;37205;51.434;6.756;2022-08-19T15:20:50;31.10;93.50
50804;DHT22;37205;51.434;6.756;2022-08-19T15:23:17;31.60;92.70
50804;DHT22;37205;51.434;6.756;2022-08-19T15:25:43;31.60;91.90
50804;DHT22;37205;51.434;6.756;2022-08-19T15:28:10;31.80;91.70
50804;DHT22;37205;51.434;6.756;2022-08-19T15:30:40;31.90;91.60
50804;DHT22;37205;51.434;6.756;2022-08-19T15:33:06;32.10;91.00
50804;DHT22;37205;51.434;6.756;2022-08-19T15:35:33;32.30;90.80
50804;DHT22;37205;51.434;6.756;2022-08-19T15:37:58;32.40;90.70
50804;DHT22;37205;51.434;6.756;2022-08-19T15:40:25;32.40;90.30
50804;DHT22;37205;51.434;6.756;2022-08-19T15:42:52;32.30;90.60
50804;DHT22;37205;51.434;6.756;2022-08-19T15:45:19;32.30;90.70
50804;DHT22;37205;51.434;6.756;2022-08-19T15:47:46;32.50;90.50
50804;DHT22;37205;51.434;6.756;2022-08-19T15:50:15;32.40;90.40